Time;durP1;ratioP1;P1;durP2;ratioP2;P2;SDS_P1;SDS_P2;PMS_P1;PMS_P2;Temp;Humidity;BMP_temperature;BMP_pressure;BME280_temperature;BME280_humidity;BME280_pressure;Samples;Min_cycle;Max_cycle;Signal;HPM_P1;HPM_P2
2021/11/01 00:00:19;;;;;;;32.67;18.35;;;9.50;99.90;;;;;;5071513;28;20021;-66
2021/11/01 00:02:46;;;;;;;35.30;17.38;;;9.40;99.90;;;;;;5071436;28;20067;-66
2021/11/01 00:05:13;;;;;;;26.45;15.43;;;9.60;99.90;;;;;;5070536;28;20037;-66
2021/11/01 00:07:39;;;;;;;26.67;14.90;;;9.50;99.90;;;;;;5052431;28;20036;-66
2021/11/01 00:10:07;;;;;;;20.08;12.80;;;9.50;99.90;;;;;;5051184;28;20100;-67
2021/11/01 00:12:33;;;;;;;20.65;12.60;;;9.60;99.90;;;;;;5051452;28;20025;-65
2021/11/01 00:14:59;;;;;;;17.02;11.07;;;9.70;99.90;;;;;;5050415;28;20155;-66
2021/11/01 00:17:26;;;;;;;17.83;9.85;;;9.70;99.90;;;;;;5051150;28;20036;-66
2021/11/01 00:19:53;;;;;;;16.60;9.60;;;9.70;99.90;;;;;;5051178;28;20021;-66
2021/11/01 00:22:20;;;;;;;14.40;9.45;;;9.80;99.90;;;;;;5050829;28;20440;-65
2021/11/01 00:24:47;;;;;;;13.15;8.80;;;9.90;99.90;;;;;;5050177;28;20029;-67
2021/11/01 00:27:13;;;;;;;17.48;10.55;;;9.90;99.90;;;;;;5054427;28;20029;-65
2021/11/01 00:29:39;;;;;;;18.42;10.73;;;9.90;99.90;;;;;;5054880;28;20021;-65
2021/11/01 00:32:05;;;;;;;14.98;9.95;;;10.00;99.90;;;;;;5054547;28;20029;-67
2021/11/01 00:34:31;;;;;;;14.65;10.07;;;10.10;99.90;;;;;;5054037;28;20032;-68
2021/11/01 00:36:56;;;;;;;14.43;9.88;;;10.00;99.90;;;;;;5054435;28;20037;-66
2021/11/01 00:39:22;;;;;;;14.10;9.73;;;10.10;99.90;;;;;;5055281;28;20024;-66
2021/11/01 00:41:48;;;;;;;14.77;10.38;;;10.10;99.90;;;;;;5055449;28;20029;-67
2021/11/01 00:44:14;;;;;;;17.63;10.77;;;10.20;99.90;;;;;;5055190;28;20283;-66
2021/11/01 00:46:39;;;;;;;14.40;9.50;;;10.10;99.90;;;;;;5054221;28;20028;-66
2021/11/01 00:49:06;;;;;;;12.88;9.45;;;10.10;99.90;;;;;;5054915;28;20025;-66
2021/11/01 00:51:36;;;;;;;13.82;8.60;;;10.10;99.90;;;;;;5055034;28;20386;-67
2021/11/01 00:54:02;;;;;;;11.18;8.48;;;10.10;99.90;;;;;;5055263;28;20045;-66
2021/11/01 00:56:27;;;;;;;12.25;8.13;;;10.10;99.90;;;;;;5053978;28;20048;-67
2021/11/01 00:58:53;;;;;;;14.65;9.32;;;10.10;99.90;;;;;;5054537;28;20465;-66
2021/11/01 01:01:19;;;;;;;19.83;12.52;;;10.10;99.90;;;;;;5054553;28;20104;-66
2021/11/01 01:03:45;;;;;;;12.57;9.07;;;10.10;99.90;;;;;;5054429;28;20482;-66
2021/11/01 01:06:12;;;;;;;12.25;9.25;;;10.10;99.90;;;;;;5053816;28;20116;-66
2021/11/01 01:08:38;;;;;;;14.70;9.20;;;10.10;99.90;;;;;;5054395;28;20031;-67
2021/11/01 01:11:05;;;;;;;11.10;8.02;;;10.30;99.90;;;;;;5054505;28;20165;-66
2021/11/01 01:13:36;;;;;;;9.80;7.82;;;10.30;99.90;;;;;;5054666;28;20424;-66
2021/11/01 01:16:12;;;;;;;10.18;8.20;;;10.40;99.90;;;;;;5054104;28;20025;-66
2021/11/01 01:18:39;;;;;;;8.73;7.72;;;10.40;99.90;;;;;;5054792;28;20021;-66
2021/11/01 01:23:53;;;;;;;12.15;8.05;;;10.50;99.90;;;;;;5054043;28;20051;-66
2021/11/01 01:26:19;;;;;;;9.65;7.57;;;10.50;99.90;;;;;;5052931;28;20029;-66
2021/11/01 01:28:44;;;;;;;10.00;7.40;;;10.60;99.90;;;;;;5053846;28;20025;-66
2021/11/01 01:31:11;;;;;;;8.77;7.57;;;10.50;99.90;;;;;;5053638;28;20044;-66
2021/11/01 01:33:37;;;;;;;11.00;7.60;;;10.60;99.90;;;;;;5053784;28;20071;-66
2021/11/01 01:36:05;;;;;;;8.77;7.28;;;10.60;99.90;;;;;;5052323;28;20033;-65
2021/11/01 01:38:31;;;;;;;9.32;7.35;;;10.70;99.90;;;;;;5053488;28;20032;-67
2021/11/01 01:40:56;;;;;;;10.48;7.93;;;10.70;99.90;;;;;;5053367;28;20028;-66
2021/11/01 01:43:23;;;;;;;8.85;7.15;;;10.70;99.90;;;;;;5053390;28;20067;-65
2021/11/01 01:45:49;;;;;;;10.43;7.05;;;10.60;99.90;;;;;;5052553;28;20017;-66
2021/11/01 01:48:18;;;;;;;9.35;6.85;;;10.70;99.90;;;;;;5053328;28;20025;-66
2021/11/01 01:50:44;;;;;;;10.15;7.40;;;10.80;99.90;;;;;;5053021;28;20078;-67
2021/11/01 01:53:10;;;;;;;10.00;7.72;;;10.90;99.90;;;;;;5053266;28;20114;-65
2021/11/01 01:55:37;;;;;;;10.23;7.10;;;10.80;99.90;;;;;;5052247;28;20092;-65
2021/11/01 01:58:04;;;;;;;10.85;7.57;;;10.80;99.90;;;;;;5053151;28;20534;-66
2021/11/01 02:02:58;;;;;;;8.70;7.40;;;10.80;99.90;;;;;;5053222;28;20166;-66
2021/11/01 02:05:46;;;;;;;9.10;6.88;;;10.80;99.90;;;;;;5052141;28;20060;-66
2021/11/01 02:08:17;;;;;;;9.75;6.85;;;10.70;99.90;;;;;;5052920;28;20044;-65
2021/11/01 02:10:53;;;;;;;10.55;7.03;;;10.70;99.90;;;;;;5053018;28;20021;-66
2021/11/01 02:13:24;;;;;;;11.63;7.80;;;10.70;99.90;;;;;;5052959;28;20032;-67
2021/11/01 02:15:53;;;;;;;20.27;12.40;;;10.70;99.90;;;;;;5052112;28;20563;-67
2021/11/01 02:18:21;;;;;;;17.88;11.80;;;10.70;99.90;;;;;;5051363;28;20036;-67
2021/11/01 02:20:59;;;;;;;18.63;11.43;;;10.80;99.90;;;;;;5052572;28;20021;-67
2021/11/01 02:24:02;;;;;;;9.63;8.35;;;10.80;99.90;;;;;;5052964;28;20136;-67
2021/11/01 02:26:28;;;;;;;9.77;7.32;;;10.80;99.90;;;;;;5051927;28;20036;-67
2021/11/01 02:28:54;;;;;;;10.18;7.90;;;10.90;99.90;;;;;;5052614;28;20017;-65
2021/11/01 02:31:21;;;;;;;9.63;7.03;;;10.90;99.90;;;;;;5052740;28;20104;-67
2021/11/01 02:33:48;;;;;;;12.55;8.35;;;11.00;99.90;;;;;;5052392;28;20471;-65
2021/11/01 02:36:15;;;;;;;9.55;6.90;;;11.20;99.90;;;;;;5051045;28;20090;-66
2021/11/01 02:38:41;;;;;;;10.48;7.18;;;11.10;99.90;;;;;;5052290;28;20159;-66
2021/11/01 02:41:41;;;;;;;6.72;6.13;;;11.20;99.90;;;;;;5053962;28;20021;-65
2021/11/01 02:44:09;;;;;;;10.40;6.35;;;11.30;99.90;;;;;;5032897;28;20060;-66
2021/11/01 02:46:35;;;;;;;5.90;5.32;;;11.50;99.90;;;;;;5054585;28;20042;-66
2021/11/01 02:49:01;;;;;;;9.65;6.53;;;11.40;99.90;;;;;;5054703;28;20025;-66
2021/11/01 02:51:28;;;;;;;10.10;6.85;;;11.40;99.90;;;;;;5054468;28;20024;-66
2021/11/01 02:53:57;;;;;;;6.88;5.97;;;11.50;99.90;;;;;;5052223;28;20032;-66
2021/11/01 02:56:23;;;;;;;8.43;6.68;;;11.50;99.90;;;;;;5051535;28;20502;-66
2021/11/01 02:58:49;;;;;;;8.60;6.22;;;11.50;99.90;;;;;;5051937;28;20041;-67
2021/11/01 03:01:17;;;;;;;9.70;6.45;;;11.50;99.90;;;;;;5052023;28;20103;-65
2021/11/01 03:03:43;;;;;;;9.27;6.45;;;11.50;99.90;;;;;;5051778;28;20029;-68
2021/11/01 03:06:14;;;;;;;6.40;5.65;;;11.60;99.90;;;;;;5050482;28;20024;-67
2021/11/01 03:08:41;;;;;;;9.35;6.45;;;11.60;99.90;;;;;;5051819;28;20113;-67
2021/11/01 03:11:08;;;;;;;5.78;4.80;;;11.70;99.90;;;;;;5052033;28;20053;-66
2021/11/01 03:13:36;;;;;;;4.10;3.35;;;11.80;99.90;;;;;;5051816;28;20025;-66
2021/11/01 03:16:04;;;;;;;4.30;2.42;;;11.80;99.90;;;;;;5051105;28;20025;-65
2021/11/01 03:18:38;;;;;;;1.42;1.30;;;11.90;99.90;;;;;;5051800;28;20045;-65
2021/11/01 03:21:07;;;;;;;1.90;1.70;;;11.80;99.90;;;;;;5050176;28;20082;-67
2021/11/01 03:23:34;;;;;;;1.08;0.68;;;11.90;99.90;;;;;;5051827;28;20024;-66
2021/11/01 03:26:04;;;;;;;1.90;0.55;;;11.90;99.90;;;;;;5050743;28;20025;-65
2021/11/01 03:28:32;;;;;;;0.95;0.50;;;11.90;99.90;;;;;;5051585;28;20104;-66
2021/11/01 03:31:00;;;;;;;0.68;0.50;;;11.90;99.90;;;;;;5051685;28;20437;-67
2021/11/01 03:33:30;;;;;;;1.05;0.50;;;11.90;99.90;;;;;;5051425;28;20035;-67
2021/11/01 03:35:57;;;;;;;1.13;0.55;;;11.90;99.90;;;;;;5050171;28;20522;-67
2021/11/01 03:38:23;;;;;;;2.92;0.43;;;11.90;99.90;;;;;;5051383;28;20083;-67
2021/11/01 03:40:50;;;;;;;0.70;0.50;;;11.90;99.90;;;;;;5051606;28;20100;-66
2021/11/01 03:43:28;;;;;;;0.85;0.50;;;11.80;99.90;;;;;;5051534;28;20359;-67
2021/11/01 03:45:55;;;;;;;1.50;0.47;;;11.80;99.90;;;;;;5050396;28;20395;-66
2021/11/01 03:48:22;;;;;;;1.00;0.47;;;11.80;99.90;;;;;;5051449;28;20029;-66
2021/11/01 03:51:05;;;;;;;2.92;0.60;;;11.80;99.90;;;;;;5051497;28;20025;-67
2021/11/01 03:53:31;;;;;;;3.42;0.47;;;11.70;99.90;;;;;;5051272;28;20018;-68
2021/11/01 03:55:58;;;;;;;1.27;0.55;;;11.70;99.90;;;;;;5050384;28;20048;-67
2021/11/01 03:58:25;;;;;;;1.35;0.70;;;11.60;99.90;;;;;;5051143;28;20390;-65
2021/11/01 04:00:52;;;;;;;2.95;0.50;;;11.60;99.90;;;;;;5052338;28;20036;-68
2021/11/01 04:03:25;;;;;;;1.00;0.55;;;11.60;99.90;;;;;;5055226;28;20033;-65
2021/11/01 04:05:58;;;;;;;0.55;0.55;;;11.60;99.90;;;;;;5054453;28;20107;-67
2021/11/01 04:08:24;;;;;;;1.50;0.52;;;11.50;99.90;;;;;;5055204;28;20485;-65
2021/11/01 04:10:49;;;;;;;1.45;0.60;;;11.60;99.90;;;;;;5055160;28;20029;-65
2021/11/01 04:13:16;;;;;;;1.73;0.70;;;11.60;99.90;;;;;;5055274;28;20033;-65
2021/11/01 04:15:47;;;;;;;1.70;0.70;;;11.50;99.90;;;;;;5054654;28;20032;-66
2021/11/01 04:18:23;;;;;;;2.90;0.90;;;11.50;99.90;;;;;;5054984;28;20029;-66
2021/11/01 04:20:55;;;;;;;1.33;0.80;;;11.50;99.90;;;;;;5055043;28;20417;-67
2021/11/01 04:23:27;;;;;;;1.40;0.80;;;11.50;99.90;;;;;;5054895;28;20045;-68
2021/11/01 04:25:53;;;;;;;3.03;0.73;;;11.50;99.90;;;;;;5054370;28;20071;-67
2021/11/01 04:28:19;;;;;;;0.73;0.60;;;11.50;99.90;;;;;;5053612;28;20052;-66
2021/11/01 04:30:49;;;;;;;0.82;0.47;;;11.50;99.90;;;;;;5054924;28;20036;-67
2021/11/01 04:33:19;;;;;;;1.85;0.50;;;11.50;99.90;;;;;;5054859;28;20033;-66
2021/11/01 04:35:44;;;;;;;1.77;0.40;;;11.50;99.90;;;;;;5053705;28;20094;-67
2021/11/01 04:41:06;;;;;;;0.55;0.50;;;11.50;99.90;;;;;;5054739;28;20052;-68
2021/11/01 04:44:06;;;;;;;1.10;0.50;;;11.50;99.90;;;;;;5054296;28;20387;-65
2021/11/01 04:54:43;;;;;;;1.00;0.40;;;11.50;99.90;;;;;;5053804;28;20039;-68
2021/11/01 04:57:09;;;;;;;2.08;0.40;;;11.40;99.90;;;;;;5054100;28;20491;-67
2021/11/01 04:59:35;;;;;;;1.30;0.40;;;11.40;99.90;;;;;;5051861;28;20518;-67
2021/11/01 05:02:01;;;;;;;2.60;0.47;;;11.40;99.90;;;;;;5054062;28;20090;-67
2021/11/01 05:04:30;;;;;;;1.90;0.47;;;11.40;99.90;;;;;;5053537;28;20049;-67
2021/11/01 05:07:07;;;;;;;2.28;0.52;;;11.40;99.90;;;;;;5053756;28;20060;-66
2021/11/01 05:09:37;;;;;;;1.33;0.32;;;11.30;99.90;;;;;;5054375;28;20078;-66
2021/11/01 05:30:45;;;;;;;0.35;0.30;;;11.20;99.90;;;;;;5034215;28;20434;-66
2021/11/01 05:35:37;;;;;;;3.58;0.40;;;11.10;99.90;;;;;;5048419;22;20129;-64
2021/11/01 05:38:04;;;;;;;3.92;0.50;;;11.10;99.90;;;;;;5059318;28;20044;-64
2021/11/01 05:40:29;;;;;;;1.17;0.40;;;11.00;99.90;;;;;;5050343;28;20017;-65
2021/11/01 05:42:55;;;;;;;1.10;0.40;;;11.00;99.90;;;;;;5053498;28;20086;-65
2021/11/01 05:45:21;;;;;;;0.57;0.38;;;10.90;99.90;;;;;;5052587;28;20039;-65
2021/11/01 05:47:58;;;;;;;1.85;0.40;;;10.80;99.90;;;;;;5053126;28;20021;-65
2021/11/01 05:50:26;;;;;;;2.22;0.40;;;10.80;99.90;;;;;;5053332;28;20028;-65
2021/11/01 05:52:52;;;;;;;1.70;0.40;;;10.70;99.90;;;;;;5052967;28;20086;-65
2021/11/01 05:55:34;;;;;;;1.27;0.25;;;10.70;99.90;;;;;;5052535;28;20025;-65
2021/11/01 06:00:58;;;;;;;3.47;0.30;;;10.70;99.90;;;;;;5053281;28;20094;-65
2021/11/01 06:03:41;;;;;;;1.08;0.30;;;10.60;99.90;;;;;;5052868;28;20102;-65
2021/11/01 06:06:24;;;;;;;2.35;0.30;;;10.60;99.90;;;;;;5051652;28;20036;-65
2021/11/01 06:13:54;;;;;;;3.17;0.40;;;10.50;99.90;;;;;;5031390;28;20113;-71
2021/11/01 06:16:21;;;;;;;0.65;0.40;;;10.50;99.90;;;;;;5018309;28;20021;-71
2021/11/01 06:18:48;;;;;;;1.75;0.38;;;10.50;99.90;;;;;;5026623;28;20021;-71
2021/11/01 06:21:16;;;;;;;1.17;0.77;;;10.40;99.90;;;;;;5029519;28;20025;-71
2021/11/01 06:23:45;;;;;;;1.67;0.40;;;10.40;99.90;;;;;;5030078;28;20048;-71
2021/11/01 06:26:17;;;;;;;2.50;0.50;;;10.40;99.90;;;;;;5029844;28;20037;-71
2021/11/01 06:28:43;;;;;;;1.08;0.40;;;10.30;99.90;;;;;;5025702;28;20025;-70
2021/11/01 06:31:33;;;;;;;0.80;0.30;;;10.40;99.90;;;;;;5031776;28;20048;-71
2021/11/01 06:39:44;;;;;;;2.38;0.60;;;10.40;99.90;;;;;;5017669;28;20096;-73
2021/11/01 06:44:49;;;;;;;1.13;0.68;;;10.40;99.90;;;;;;5011692;28;20030;-72
2021/11/01 06:50:09;;;;;;;0.50;0.40;;;10.30;99.90;;;;;;5012370;28;20033;-70
2021/11/01 07:14:29;;;;;;;0.70;0.70;;;10.40;99.90;;;;;;5031832;28;20072;-70
2021/11/01 07:16:59;;;;;;;0.70;0.60;;;10.40;99.90;;;;;;5031650;28;20040;-70
2021/11/01 07:19:55;;;;;;;1.75;0.57;;;10.40;99.90;;;;;;5031551;28;20032;-71
2021/11/01 08:17:18;;;;;;;2.20;0.90;;;10.60;99.90;;;;;;5031757;28;20079;-71
2021/11/01 08:48:02;;;;;;;3.15;2.13;;;10.30;99.90;;;;;;5032777;28;20535;-72
2021/11/01 08:50:41;;;;;;;1.27;1.10;;;10.30;99.90;;;;;;5034115;28;20041;-71
2021/11/01 09:20:13;;;;;;;2.17;1.08;;;10.70;99.90;;;;;;5033904;28;20166;-71
2021/11/01 09:28:46;;;;;;;1.60;1.30;;;10.90;99.90;;;;;;5034013;28;20506;-72
2021/11/01 09:39:28;;;;;;;0.63;0.60;;;11.50;99.90;;;;;;5033481;28;20040;-72
2021/11/01 09:41:20;;;;;;;1.35;0.90;;;11.50;99.90;;;;;;5020370;28;20033;-71
2021/11/01 09:43:51;;;;;;;1.33;1.23;;;11.50;99.90;;;;;;5033595;28;20506;-72
2021/11/01 09:46:19;;;;;;;0.75;0.60;;;11.60;99.90;;;;;;5032646;28;20036;-75
2021/11/01 09:48:45;;;;;;;6.75;4.00;;;11.70;99.90;;;;;;5033598;28;20147;-73
2021/11/01 09:51:11;;;;;;;1.48;0.90;;;11.70;99.90;;;;;;5033488;28;20036;-72
2021/11/01 09:53:42;;;;;;;1.60;1.13;;;11.60;99.90;;;;;;5033189;28;20021;-76
2021/11/01 10:01:28;;;;;;;1.55;0.50;;;11.40;99.90;;;;;;5033413;28;20039;-71
2021/11/01 10:03:54;;;;;;;3.92;1.55;;;11.40;99.90;;;;;;5033031;28;20104;-70
2021/11/01 10:06:23;;;;;;;2.30;1.70;;;11.30;99.90;;;;;;5032563;28;20040;-70
2021/11/01 10:08:53;;;;;;;2.13;1.05;;;11.30;99.90;;;;;;5037380;28;20274;-71
2021/11/01 10:11:23;;;;;;;0.82;0.63;;;11.20;99.90;;;;;;5040084;28;20044;-71
2021/11/01 10:13:55;;;;;;;0.60;0.60;;;11.20;99.90;;;;;;5034902;28;20376;-71
2021/11/01 10:19:40;;;;;;;0.65;0.65;;;11.10;99.90;;;;;;5032981;28;20403;-70
2021/11/01 10:22:11;;;;;;;1.45;0.70;;;11.10;99.90;;;;;;5032833;28;20036;-71
2021/11/01 10:24:41;;;;;;;0.90;0.50;;;11.10;99.90;;;;;;5031010;28;20054;-71
2021/11/01 10:27:13;;;;;;;0.50;0.50;;;11.10;99.90;;;;;;5032439;28;20025;-71
2021/11/01 10:30:21;;;;;;;3.08;0.70;;;11.10;99.90;;;;;;5014626;28;20064;-71
2021/11/01 10:32:49;;;;;;;1.38;1.15;;;11.20;99.90;;;;;;4990532;28;20485;-71
2021/11/01 10:35:19;;;;;;;3.55;1.40;;;11.20;99.90;;;;;;5025808;28;20037;-71
2021/11/01 10:37:57;;;;;;;1.20;1.10;;;11.30;99.90;;;;;;5032090;28;20034;-72
2021/11/01 10:40:26;;;;;;;1.40;1.27;;;11.20;99.90;;;;;;5032314;28;20026;-71
2021/11/01 10:42:53;;;;;;;2.63;1.17;;;11.40;99.90;;;;;;5032256;28;20028;-71
2021/11/01 10:45:34;;;;;;;1.35;1.15;;;11.30;99.90;;;;;;5013913;28;20514;-72
2021/11/01 11:13:15;;;;;;;2.72;2.47;;;11.40;99.90;;;;;;5031976;28;20071;-71
2021/11/01 11:15:40;;;;;;;4.82;2.20;;;11.40;99.90;;;;;;5030751;28;20048;-71
2021/11/01 11:28:49;;;;;;;2.42;2.10;;;11.60;99.90;;;;;;5031387;28;20025;-70
2021/11/01 11:47:26;;;;;;;2.10;2.00;;;11.50;99.90;;;;;;5031588;28;20040;-73
2021/11/01 11:49:54;;;;;;;6.47;5.13;;;11.50;99.90;;;;;;5042846;28;20025;-73
2021/11/01 11:52:22;;;;;;;6.32;4.05;;;11.40;99.90;;;;;;5051395;28;20028;-73
2021/11/01 11:54:55;;;;;;;5.35;4.85;;;11.30;99.90;;;;;;5050263;28;20021;-73
2021/11/01 11:57:29;;;;;;;5.25;1.83;;;11.40;99.90;;;;;;5051208;28;20025;-73
2021/11/01 11:59:56;;;;;;;2.17;1.67;;;11.50;99.90;;;;;;5051311;28;20025;-74
2021/11/01 12:02:41;;;;;;;1.52;1.27;;;11.50;99.90;;;;;;5050938;28;20112;-73
2021/11/01 12:05:58;;;;;;;6.68;2.60;;;11.60;99.90;;;;;;5050555;28;20025;-72
2021/11/01 12:18:52;;;;;;;1.92;1.25;;;11.80;99.90;;;;;;5031779;28;20040;-78
2021/11/01 12:21:18;;;;;;;1.80;1.45;;;12.00;99.90;;;;;;5032186;28;20116;-77
2021/11/01 12:23:44;;;;;;;4.93;2.95;;;12.00;99.90;;;;;;5017289;28;20163;-77
2021/11/01 12:26:12;;;;;;;2.30;1.80;;;12.10;99.90;;;;;;5034461;28;20105;-76
2021/11/01 12:28:39;;;;;;;1.50;1.20;;;11.90;99.90;;;;;;5034494;28;20029;-74
2021/11/01 12:31:09;;;;;;;1.42;1.02;;;11.80;99.90;;;;;;5042296;28;20009;-76
2021/11/01 12:33:35;;;;;;;2.58;1.92;;;11.70;99.90;;;;;;5054911;28;20475;-74
2021/11/01 12:36:06;;;;;;;3.63;2.22;;;12.00;99.90;;;;;;5054042;28;20025;-75
2021/11/01 12:38:50;;;;;;;3.05;2.08;;;11.90;99.90;;;;;;5054194;28;20033;-74
2021/11/01 12:41:37;;;;;;;2.17;1.83;;;11.80;99.90;;;;;;5054644;28;20025;-75
2021/11/01 12:57:42;;;;;;;2.60;2.20;;;11.70;99.90;;;;;;5054506;28;20035;-75
2021/11/01 13:00:09;;;;;;;2.08;1.80;;;11.70;99.90;;;;;;5054116;28;20028;-75
2021/11/01 13:02:39;;;;;;;2.13;1.80;;;11.70;99.90;;;;;;5054412;28;20021;-76
2021/11/01 13:05:17;;;;;;;1.92;1.50;;;11.70;99.90;;;;;;5053752;28;20486;-76
2021/11/01 13:08:03;;;;;;;1.70;1.60;;;11.70;99.90;;;;;;5053079;28;20060;-76
2021/11/01 13:10:41;;;;;;;2.40;1.30;;;11.70;99.90;;;;;;5053666;28;20021;-76
2021/11/01 13:18:14;;;;;;;2.55;1.50;;;11.70;99.90;;;;;;5053984;28;20028;-75
2021/11/01 13:20:46;;;;;;;2.45;1.08;;;11.80;99.90;;;;;;5053784;28;20075;-75
2021/11/01 13:23:12;;;;;;;;;;;11.70;99.90;;;;;;5054530;28;20029;-74
2021/11/01 13:25:47;;;;;;;4.13;1.40;;;11.70;99.90;;;;;;5052973;28;19958;-75
2021/11/01 13:38:53;;;;;;;16.33;2.40;;;11.80;99.90;;;;;;5053272;28;20040;-75
2021/11/01 13:41:27;;;;;;;3.90;2.30;;;11.70;99.90;;;;;;5054397;28;20024;-76
2021/11/01 13:44:04;;;;;;;2.47;1.80;;;11.80;99.90;;;;;;5054508;28;20035;-77
2021/11/01 13:46:30;;;;;;;3.15;1.75;;;11.70;99.90;;;;;;5053504;28;20048;-76
2021/11/01 13:48:58;;;;;;;1.67;1.27;;;11.70;99.90;;;;;;5054346;28;20056;-76
2021/11/01 13:51:29;;;;;;;3.40;1.45;;;11.80;99.90;;;;;;5053474;28;20088;-75
2021/11/01 13:56:38;;;;;;;3.53;1.85;;;11.80;99.90;;;;;;5052560;28;20036;-75
2021/11/01 13:59:27;;;;;;;7.68;5.18;;;11.90;99.90;;;;;;5053128;28;20025;-71
2021/11/01 14:13:38;;;;;;;6.88;4.80;;;12.10;99.90;;;;;;5053781;28;20055;-74
2021/11/01 14:18:43;;;;;;;5.28;4.07;;;12.10;99.90;;;;;;5053689;28;20021;-74
2021/11/01 14:35:03;;;;;;;4.82;1.33;;;11.80;99.90;;;;;;5052022;28;20071;-77
2021/11/01 15:07:44;;;;;;;1.20;1.10;;;12.10;99.90;;;;;;5052244;28;20083;-75
2021/11/01 15:26:19;;;;;;;2.03;1.15;;;11.90;99.90;;;;;;5052032;28;20028;-73
2021/11/01 15:34:20;;;;;;;2.08;1.30;;;11.90;99.90;;;;;;5052416;28;20029;-70
2021/11/01 15:37:12;;;;;;;4.20;1.50;;;11.80;99.90;;;;;;5053015;28;20056;-71
2021/11/01 16:20:26;;;;;;;5.28;2.60;;;10.00;99.90;;;;;;5060299;28;20533;-70
2021/11/01 16:23:37;;;;;;;10.07;5.43;;;9.90;99.90;;;;;;5039410;28;20033;-71
2021/11/01 16:25:39;;;;;;;14.60;7.40;;;9.90;99.90;;;;;;5052929;28;20037;-71
2021/11/01 16:28:05;;;;;;;13.00;8.00;;;9.80;99.90;;;;;;5063224;28;20051;-71
2021/11/01 16:30:33;;;;;;;19.20;9.32;;;9.70;99.90;;;;;;5064486;28;20019;-73
2021/11/01 16:33:03;;;;;;;15.60;10.00;;;9.70;99.90;;;;;;5065510;28;20545;-70
2021/11/01 16:35:35;;;;;;;8.38;4.25;;;9.50;99.90;;;;;;5069159;28;20103;-71
2021/11/01 16:40:27;;;;;;;4.35;3.33;;;9.40;99.90;;;;;;5070519;28;20425;-70
2021/11/01 16:42:56;;;;;;;3.65;3.00;;;9.40;99.90;;;;;;5055942;28;20364;-70
2021/11/01 16:47:47;;;;;;;4.80;3.42;;;9.20;99.90;;;;;;5054979;28;20116;-70
2021/11/01 16:50:16;;;;;;;5.72;3.30;;;9.20;99.90;;;;;;5054690;28;20095;-71
2021/11/01 16:52:44;;;;;;;7.30;2.88;;;9.10;99.90;;;;;;5054619;28;20020;-71
2021/11/01 16:55:17;;;;;;;3.38;2.83;;;9.00;99.90;;;;;;5036207;28;20032;-72
2021/11/01 16:57:49;;;;;;;5.35;4.82;;;9.00;99.90;;;;;;5054640;28;20021;-71
2021/11/01 17:24:41;;;;;;;4.95;2.75;;;8.90;99.90;;;;;;5033369;28;20041;-71
2021/11/01 17:36:01;;;;;;;7.43;4.85;;;9.00;99.90;;;;;;5033195;28;20442;-72
2021/11/01 18:24:46;;;;;;;3.95;2.65;;;9.30;99.90;;;;;;5036219;28;20538;-72
2021/11/01 18:43:04;;;;;;;10.90;7.18;;;8.30;99.90;;;;;;5044870;28;20036;-73
2021/11/01 18:53:07;;;;;;;12.52;7.10;;;8.00;99.90;;;;;;5044893;28;20031;-79
2021/11/01 18:55:33;;;;;;;17.75;10.65;;;7.90;99.90;;;;;;5038490;28;20033;-78
2021/11/01 18:58:01;;;;;;;6.85;6.00;;;7.90;99.90;;;;;;5042314;28;20090;-78
2021/11/01 19:00:28;;;;;;;9.93;6.32;;;7.90;99.90;;;;;;5044633;28;20062;-78
2021/11/01 19:02:58;;;;;;;8.90;6.78;;;7.80;99.90;;;;;;5042876;28;20022;-75
2021/11/01 20:03:07;;;;;;;11.35;6.65;;;6.80;99.90;;;;;;5033646;28;20083;-77
2021/11/01 20:05:51;;;;;;;10.27;6.78;;;6.90;99.90;;;;;;5032489;28;20030;-77
2021/11/01 21:26:30;;;;;;;8.32;6.25;;;5.50;99.90;;;;;;5056875;28;20043;-65
2021/11/01 21:28:56;;;;;;;6.70;5.93;;;5.40;99.90;;;;;;5054503;28;20025;-66
2021/11/01 21:31:22;;;;;;;14.82;6.10;;;5.40;99.90;;;;;;5053944;28;20104;-67
2021/11/01 21:33:52;;;;;;;6.93;5.55;;;5.40;99.90;;;;;;5054052;28;20025;-67
2021/11/01 21:36:24;;;;;;;12.23;6.57;;;5.30;99.90;;;;;;5052950;28;20013;-65
2021/11/01 21:38:53;;;;;;;7.68;5.22;;;5.30;99.90;;;;;;5053263;28;20567;-64
2021/11/01 21:41:18;;;;;;;6.60;5.35;;;5.30;99.90;;;;;;5054749;28;20445;-66
2021/11/01 21:43:44;;;;;;;8.80;6.38;;;5.50;99.90;;;;;;5054004;28;20025;-66
2021/11/01 21:46:10;;;;;;;9.63;5.22;;;5.30;99.90;;;;;;5052546;28;20503;-65
2021/11/01 21:48:36;;;;;;;10.57;6.22;;;5.30;99.90;;;;;;5053496;28;20033;-66
2021/11/01 21:51:01;;;;;;;9.50;6.82;;;5.40;99.90;;;;;;5052858;28;20017;-65
2021/11/01 21:53:29;;;;;;;7.93;6.63;;;5.40;99.90;;;;;;5053827;28;20146;-68
2021/11/01 21:55:56;;;;;;;12.82;6.70;;;5.40;99.90;;;;;;5053088;28;20032;-66
2021/11/01 22:17:40;;;;;;;9.52;6.80;;;5.30;99.90;;;;;;5054105;28;20037;-65
2021/11/01 22:20:19;;;;;;;9.05;7.00;;;5.30;99.90;;;;;;5052482;28;20032;-66
2021/11/01 22:22:54;;;;;;;15.88;7.15;;;5.20;99.90;;;;;;5053009;28;20035;-64
2021/11/01 22:25:28;;;;;;;10.55;6.72;;;5.20;99.90;;;;;;5051247;28;20471;-65
2021/11/01 22:33:36;;;;;;;10.38;7.60;;;5.20;99.90;;;;;;5053090;28;20052;-65
2021/11/01 22:41:33;;;;;;;13.37;8.20;;;5.20;99.90;;;;;;5052498;28;20394;-65
2021/11/01 22:57:05;;;;;;;13.35;9.13;;;5.50;99.90;;;;;;5052910;28;20036;-66
2021/11/01 22:59:31;;;;;;;13.73;9.43;;;5.50;99.90;;;;;;5052468;28;20029;-67
2021/11/01 23:01:57;;;;;;;11.55;8.80;;;5.50;99.90;;;;;;5052896;28;20048;-66
2021/11/01 23:32:03;;;;;;;17.42;11.23;;;5.80;99.90;;;;;;5052119;28;20398;-66
2021/11/01 23:34:29;;;;;;;23.30;13.95;;;5.80;99.90;;;;;;5051327;28;20035;-65
2021/11/01 23:36:58;;;;;;;56.58;25.75;;;5.80;99.90;;;;;;5052239;28;20037;-65
2021/11/01 23:39:24;;;;;;;35.03;16.23;;;5.90;99.90;;;;;;5051949;28;20079;-65
2021/11/01 23:41:50;;;;;;;25.23;13.18;;;5.90;99.90;;;;;;5051886;28;20032;-67
2021/11/01 23:44:17;;;;;;;17.20;10.30;;;5.90;99.90;;;;;;5051585;28;20044;-67
2021/11/01 23:46:42;;;;;;;19.27;10.40;;;6.00;99.90;;;;;;5052443;28;20031;-66
2021/11/01 23:49:08;;;;;;;20.65;11.43;;;6.00;99.90;;;;;;5052630;28;20132;-66
2021/11/01 23:51:37;;;;;;;18.00;11.10;;;6.00;99.90;;;;;;5050093;28;20025;-65
2021/11/01 23:56:33;;;;;;;17.08;10.23;;;6.20;99.90;;;;;;5050938;28;20361;-66
2021/11/01 23:58:59;;;;;;;14.10;10.13;;;6.30;99.90;;;;;;5051026;28;20074;-65
